createdAt,value
2018-11-06T00:00:14.533Z,0
2018-11-06T00:01:14.832Z,0
2018-11-06T00:02:14.575Z,0
2018-11-06T00:03:14.299Z,0
2018-11-06T00:04:14.558Z,0
2018-11-06T00:05:14.539Z,0
2018-11-06T00:06:14.267Z,0
2018-11-06T00:07:14.259Z,0
2018-11-06T00:08:14.249Z,0
2018-11-06T00:09:15.121Z,0
2018-11-06T00:10:14.235Z,0
2018-11-06T00:11:14.485Z,0
2018-11-06T00:12:14.452Z,0
2018-11-06T00:13:14.449Z,0
2018-11-06T00:14:14.445Z,0
2018-11-06T00:15:14.680Z,0
2018-11-06T00:16:14.414Z,0
2018-11-06T00:17:14.148Z,0
2018-11-06T00:18:14.135Z,0
2018-11-06T00:19:14.386Z,0
2018-11-06T00:20:14.623Z,0
2018-11-06T00:21:14.396Z,0
2018-11-06T00:22:14.344Z,0
2018-11-06T00:23:14.335Z,0
2018-11-06T00:24:14.571Z,0
2018-11-06T00:25:14.328Z,0
2018-11-06T00:26:14.558Z,0
2018-11-06T00:27:13.771Z,0
2018-11-06T00:28:14.025Z,0
2018-11-06T00:29:14.282Z,0
2018-11-06T00:30:14.253Z,0
2018-11-06T00:31:13.996Z,0
2018-11-06T00:32:14.227Z,0
2018-11-06T00:33:13.445Z,0
2018-11-06T00:34:14.603Z,0
2018-11-06T00:35:13.948Z,0
2018-11-06T00:36:14.529Z,0
2018-11-06T00:37:13.970Z,0
2018-11-06T00:38:14.453Z,0
2018-11-06T00:39:14.147Z,0
2018-11-06T00:40:14.143Z,0
2018-11-06T00:41:14.133Z,0
2018-11-06T00:42:14.120Z,0
2018-11-06T00:43:14.365Z,0
2018-11-06T00:44:14.093Z,0
2018-11-06T00:45:14.079Z,0
2018-11-06T00:46:14.069Z,0
2018-11-06T00:47:14.313Z,0
2018-11-06T00:48:14.044Z,0
2018-11-06T00:49:14.176Z,0
2018-11-06T00:50:13.772Z,0
2018-11-06T00:51:14.275Z,0
2018-11-06T00:52:14.267Z,0
2018-11-06T00:53:14.252Z,0
2018-11-06T00:54:14.236Z,0
2018-11-06T00:55:14.225Z,0
2018-11-06T00:56:13.960Z,0
2018-11-06T00:57:13.428Z,0
2018-11-06T00:58:14.193Z,0
2018-11-06T00:59:14.167Z,0
2018-11-06T01:00:13.652Z,0
2018-11-06T01:01:13.904Z,0
2018-11-06T01:02:14.139Z,0
2018-11-06T01:03:13.884Z,0
2018-11-06T01:04:14.134Z,0
2018-11-06T01:05:13.087Z,0
2018-11-06T01:06:13.587Z,0
2018-11-06T01:07:13.838Z,0
2018-11-06T01:08:13.307Z,0
2018-11-06T01:09:13.810Z,0
2018-11-06T01:10:14.053Z,0
2018-11-06T01:11:13.820Z,0
2018-11-06T01:12:13.775Z,0
2018-11-06T01:13:13.763Z,0
2018-11-06T01:14:13.753Z,0
2018-11-06T01:15:13.998Z,0
2018-11-06T01:16:13.721Z,0
2018-11-06T01:17:13.456Z,0
2018-11-06T01:18:12.922Z,0
2018-11-06T01:19:13.679Z,0
2018-11-06T01:20:13.160Z,0
2018-11-06T01:21:13.145Z,0
2018-11-06T01:22:13.649Z,0
2018-11-06T01:23:13.681Z,0
2018-11-06T01:24:13.630Z,0
2018-11-06T01:25:13.360Z,0
2018-11-06T01:26:13.968Z,0
2018-11-06T01:27:13.329Z,0
2018-11-06T01:28:13.580Z,0
2018-11-06T01:29:13.052Z,0
2018-11-06T01:30:13.310Z,0
2018-11-06T01:31:13.326Z,0
2018-11-06T01:32:13.470Z,0
2018-11-06T01:33:13.530Z,0
2018-11-06T01:34:12.998Z,0
2018-11-06T01:35:13.596Z,0
2018-11-06T01:36:13.599Z,0
2018-11-06T01:37:13.525Z,0
2018-11-06T01:38:13.427Z,0
2018-11-06T01:39:14.174Z,0
2018-11-06T01:40:13.784Z,0
2018-11-06T01:41:14.189Z,0
2018-11-06T01:42:13.817Z,0
2018-11-06T01:43:13.443Z,0
2018-11-06T01:44:13.816Z,0
2018-11-06T01:45:13.459Z,0
2018-11-06T01:46:13.412Z,0
2018-11-06T01:47:14.124Z,0
2018-11-06T01:48:13.122Z,0
2018-11-06T01:49:13.731Z,0
2018-11-06T01:50:13.456Z,0
2018-11-06T01:51:13.878Z,0
2018-11-06T01:52:13.403Z,0
2018-11-06T01:53:12.776Z,0
2018-11-06T01:54:13.546Z,0
2018-11-06T01:55:13.786Z,0
2018-11-06T01:56:13.265Z,0
2018-11-06T01:57:13.498Z,0
2018-11-06T01:58:12.980Z,0
2018-11-06T01:59:13.221Z,0
2018-11-06T02:00:13.212Z,0
2018-11-06T02:01:13.204Z,0
2018-11-06T02:02:13.186Z,0
2018-11-06T02:03:13.343Z,0
2018-11-06T02:04:13.167Z,0
2018-11-06T02:05:12.892Z,0
2018-11-06T02:06:13.839Z,0
2018-11-06T02:07:14.389Z,0
2018-11-06T02:08:13.417Z,0
2018-11-06T02:09:12.592Z,0
2018-11-06T02:10:13.175Z,0
2018-11-06T02:11:13.085Z,0
2018-11-06T02:12:12.557Z,0
2018-11-06T02:13:12.290Z,0
2018-11-06T02:14:12.788Z,0
2018-11-06T02:15:13.036Z,0
2018-11-06T02:16:12.762Z,0
2018-11-06T02:17:12.756Z,0
2018-11-06T02:18:12.751Z,0
2018-11-06T02:19:12.994Z,0
2018-11-06T02:20:13.245Z,0
2018-11-06T02:21:13.218Z,0
2018-11-06T02:22:12.950Z,0
2018-11-06T02:23:12.942Z,0
2018-11-06T02:24:13.185Z,0
2018-11-06T02:25:12.150Z,0
2018-11-06T02:26:13.168Z,0
2018-11-06T02:27:12.900Z,0
2018-11-06T02:28:12.630Z,0
2018-11-06T02:29:12.618Z,0
2018-11-06T02:30:13.163Z,0
2018-11-06T02:31:13.134Z,0
2018-11-06T02:32:13.289Z,0
2018-11-06T02:33:12.059Z,0
2018-11-06T02:34:12.560Z,0
2018-11-06T02:35:12.831Z,0
2018-11-06T02:36:13.056Z,0
2018-11-06T02:37:13.043Z,0
2018-11-06T02:38:12.778Z,0
2018-11-06T02:39:12.755Z,0
2018-11-06T02:40:12.754Z,0
2018-11-06T02:41:12.756Z,0
2018-11-06T02:42:12.981Z,0
2018-11-06T02:43:12.712Z,0
2018-11-06T02:44:12.957Z,0
2018-11-06T02:45:12.432Z,0
2018-11-06T02:46:12.690Z,0
2018-11-06T02:47:12.666Z,0
2018-11-06T02:48:12.913Z,0
2018-11-06T02:49:12.644Z,0
2018-11-06T02:50:12.371Z,0
2018-11-06T02:51:12.613Z,0
2018-11-06T02:52:12.604Z,0
2018-11-06T02:53:12.342Z,0
2018-11-06T02:54:12.587Z,0
2018-11-06T02:55:12.842Z,0
2018-11-06T02:56:12.578Z,0
2018-11-06T02:57:12.548Z,0
2018-11-06T02:58:12.313Z,0
2018-11-06T02:59:12.523Z,0
2018-11-06T03:00:11.999Z,0
2018-11-06T03:01:12.497Z,0
2018-11-06T03:02:12.497Z,0
2018-11-06T03:03:12.225Z,0
2018-11-06T03:04:12.209Z,0
2018-11-06T03:05:12.205Z,0
2018-11-06T03:06:12.443Z,0
2018-11-06T03:07:12.434Z,0
2018-11-06T03:08:12.428Z,0
2018-11-06T03:09:12.408Z,0
2018-11-06T03:10:12.430Z,0
2018-11-06T03:11:12.146Z,0
2018-11-06T03:12:12.641Z,0
2018-11-06T03:13:12.372Z,0
2018-11-06T03:14:12.356Z,0
2018-11-06T03:15:12.082Z,0
2018-11-06T03:16:11.818Z,0
2018-11-06T03:17:12.716Z,0
2018-11-06T03:18:12.055Z,0
2018-11-06T03:19:12.295Z,0
2018-11-06T03:20:11.780Z,0
2018-11-06T03:21:12.295Z,0
2018-11-06T03:22:12.264Z,0
2018-11-06T03:23:12.500Z,0
2018-11-06T03:24:12.234Z,0
2018-11-06T03:25:11.717Z,0
2018-11-06T03:26:11.697Z,0
2018-11-06T03:27:12.346Z,0
2018-11-06T03:28:11.929Z,0
2018-11-06T03:29:12.206Z,0
2018-11-06T03:30:12.431Z,0
2018-11-06T03:31:12.424Z,0
2018-11-06T03:32:11.911Z,0
2018-11-06T03:33:12.126Z,0
2018-11-06T03:34:11.860Z,0
2018-11-06T03:35:12.110Z,0
2018-11-06T03:36:12.098Z,0
2018-11-06T03:37:12.088Z,0
2018-11-06T03:38:12.322Z,0
2018-11-06T03:39:11.807Z,0
2018-11-06T03:40:12.050Z,0
2018-11-06T03:41:11.523Z,0
2018-11-06T03:42:12.026Z,0
2018-11-06T03:43:11.515Z,0
2018-11-06T03:44:11.737Z,0
2018-11-06T03:45:12.264Z,0
2018-11-06T03:46:12.230Z,0
2018-11-06T03:47:11.969Z,0
2018-11-06T03:48:11.439Z,0
2018-11-06T03:49:11.949Z,0
2018-11-06T03:50:11.702Z,0
2018-11-06T03:51:11.404Z,0
2018-11-06T03:52:11.646Z,0
2018-11-06T03:53:11.896Z,0
2018-11-06T03:54:11.888Z,0
2018-11-06T03:55:11.374Z,0
2018-11-06T03:56:11.862Z,0
2018-11-06T03:57:11.587Z,0
2018-11-06T03:58:11.849Z,0
2018-11-06T03:59:12.114Z,0
2018-11-06T04:00:11.822Z,0
2018-11-06T04:01:11.806Z,0
2018-11-06T04:02:11.793Z,0
2018-11-06T04:03:11.524Z,0
2018-11-06T04:04:11.762Z,0
2018-11-06T04:05:12.022Z,0
2018-11-06T04:06:11.489Z,0
2018-11-06T04:07:11.475Z,0
2018-11-06T04:08:11.986Z,0
2018-11-06T04:09:11.455Z,0
2018-11-06T04:10:11.442Z,0
2018-11-06T04:11:11.682Z,0
2018-11-06T04:12:11.922Z,0
2018-11-06T04:13:11.920Z,0
2018-11-06T04:14:11.160Z,0
2018-11-06T04:15:11.387Z,0
2018-11-06T04:16:11.366Z,0
2018-11-06T04:17:11.095Z,0
2018-11-06T04:18:11.599Z,0
2018-11-06T04:19:11.599Z,0
2018-11-06T04:20:11.579Z,0
2018-11-06T04:21:11.575Z,0
2018-11-06T04:22:11.302Z,0
2018-11-06T04:23:11.286Z,0
2018-11-06T04:24:11.274Z,0
2018-11-06T04:25:11.521Z,0
2018-11-06T04:26:10.732Z,0
2018-11-06T04:27:11.247Z,0
2018-11-06T04:28:11.236Z,0
2018-11-06T04:29:11.219Z,0
2018-11-06T04:30:11.481Z,0
2018-11-06T04:31:10.940Z,0
2018-11-06T04:32:11.707Z,0
2018-11-06T04:33:11.173Z,0
2018-11-06T04:34:11.417Z,0
2018-11-06T04:35:11.402Z,0
2018-11-06T04:36:10.893Z,0
2018-11-06T04:37:11.638Z,0
2018-11-06T04:38:11.361Z,0
2018-11-06T04:39:11.617Z,0
2018-11-06T04:40:11.356Z,0
2018-11-06T04:41:11.080Z,0
2018-11-06T04:42:11.322Z,0
2018-11-06T04:43:11.308Z,0
2018-11-06T04:44:11.040Z,0
2018-11-06T04:45:11.292Z,0
2018-11-06T04:46:11.275Z,0
2018-11-06T04:47:11.010Z,0
2018-11-06T04:48:10.989Z,0
2018-11-06T04:49:10.470Z,0
2018-11-06T04:50:11.235Z,0
2018-11-06T04:51:11.211Z,0
2018-11-06T04:52:11.238Z,0
2018-11-06T04:53:10.928Z,0
2018-11-06T04:54:11.181Z,0
2018-11-06T04:55:11.166Z,0
2018-11-06T04:56:11.406Z,0
2018-11-06T04:57:11.146Z,0
2018-11-06T04:58:10.619Z,0
2018-11-06T04:59:10.852Z,0
2018-11-06T05:00:10.593Z,0
2018-11-06T05:01:10.832Z,0
2018-11-06T05:02:11.149Z,0
2018-11-06T05:03:10.810Z,0
2018-11-06T05:04:10.798Z,0
2018-11-06T05:05:11.057Z,0
2018-11-06T05:06:10.772Z,0
2018-11-06T05:07:10.779Z,0
2018-11-06T05:08:11.030Z,0
2018-11-06T05:09:10.747Z,0
2018-11-06T05:10:10.737Z,0
2018-11-06T05:11:10.721Z,0
2018-11-06T05:12:10.713Z,0
2018-11-06T05:13:10.951Z,0
2018-11-06T05:14:10.836Z,0
2018-11-06T05:15:10.942Z,0
2018-11-06T05:16:11.177Z,0
2018-11-06T05:17:10.640Z,0
2018-11-06T05:18:10.633Z,0
2018-11-06T05:19:10.875Z,0
2018-11-06T05:20:11.119Z,0
2018-11-06T05:21:11.112Z,0
2018-11-06T05:22:10.583Z,0
2018-11-06T05:23:10.311Z,0
2018-11-06T05:24:10.822Z,0
2018-11-06T05:25:10.561Z,0
2018-11-06T05:26:10.814Z,0
2018-11-06T05:27:10.838Z,0
2018-11-06T05:28:10.773Z,0
2018-11-06T05:29:10.505Z,0
2018-11-06T05:30:10.230Z,0
2018-11-06T05:31:10.735Z,0
2018-11-06T05:32:10.473Z,0
2018-11-06T05:33:11.091Z,0
2018-11-06T05:34:10.700Z,0
2018-11-06T05:35:10.887Z,0
2018-11-06T05:36:10.941Z,0
2018-11-06T05:37:10.657Z,0
2018-11-06T05:38:10.387Z,0
2018-11-06T05:39:10.822Z,0
2018-11-06T05:40:10.371Z,0
2018-11-06T05:41:10.627Z,0
2018-11-06T05:42:10.599Z,0
2018-11-06T05:43:10.333Z,0
2018-11-06T05:44:10.279Z,0
2018-11-06T05:45:10.570Z,0
2018-11-06T05:46:10.295Z,0
2018-11-06T05:47:10.796Z,0
2018-11-06T05:48:10.527Z,0
2018-11-06T05:49:10.256Z,0
2018-11-06T05:50:10.759Z,0
2018-11-06T05:51:10.751Z,0
2018-11-06T05:52:10.220Z,0
2018-11-06T05:53:10.397Z,0
2018-11-06T05:54:10.457Z,0
2018-11-06T05:55:10.700Z,0
2018-11-06T05:56:10.687Z,0
2018-11-06T05:57:10.673Z,0
2018-11-06T05:58:10.147Z,0
2018-11-06T05:59:10.393Z,0
2018-11-06T06:00:10.648Z,0
2018-11-06T06:01:10.629Z,0
2018-11-06T06:02:10.359Z,0
2018-11-06T06:03:10.350Z,0
2018-11-06T06:04:10.079Z,0
2018-11-06T06:05:09.551Z,5
2018-11-06T06:06:10.312Z,5
2018-11-06T06:07:10.045Z,5
2018-11-06T06:08:10.021Z,5
2018-11-06T06:09:10.014Z,5
2018-11-06T06:10:10.000Z,5
2018-11-06T06:11:10.706Z,5
2018-11-06T06:12:10.542Z,5
2018-11-06T06:13:10.267Z,5
2018-11-06T06:14:09.895Z,10
2018-11-06T06:15:10.200Z,10
2018-11-06T06:16:09.935Z,10
2018-11-06T06:17:10.627Z,10
2018-11-06T06:18:09.905Z,10
2018-11-06T06:19:09.895Z,10
2018-11-06T06:20:09.879Z,10
2018-11-06T06:21:09.866Z,15
2018-11-06T06:22:10.113Z,15
2018-11-06T06:23:09.847Z,15
2018-11-06T06:24:10.348Z,15
2018-11-06T06:25:10.082Z,15
2018-11-06T06:26:09.810Z,15
2018-11-06T06:27:09.538Z,20
2018-11-06T06:28:10.040Z,20
2018-11-06T06:29:10.029Z,20
2018-11-06T06:30:10.021Z,20
2018-11-06T06:31:10.002Z,20
2018-11-06T06:32:09.739Z,20
2018-11-06T06:33:09.987Z,25
2018-11-06T06:34:09.713Z,25
2018-11-06T06:35:10.419Z,25
2018-11-06T06:36:09.685Z,25
2018-11-06T06:37:09.931Z,25
2018-11-06T06:38:09.922Z,25
2018-11-06T06:39:09.646Z,30
2018-11-06T06:40:10.109Z,30
2018-11-06T06:41:10.656Z,30
2018-11-06T06:42:09.867Z,30
2018-11-06T06:43:09.598Z,30
2018-11-06T06:44:09.589Z,30
2018-11-06T06:45:09.836Z,35
2018-11-06T06:46:10.203Z,35
2018-11-06T06:47:09.819Z,35
2018-11-06T06:48:09.283Z,35
2018-11-06T06:49:10.090Z,35
2018-11-06T06:50:09.775Z,35
2018-11-06T06:51:10.017Z,35
2018-11-06T06:52:09.231Z,40
2018-11-06T06:53:09.731Z,40
2018-11-06T06:54:09.904Z,40
2018-11-06T06:55:09.915Z,40
2018-11-06T06:56:09.956Z,40
2018-11-06T06:57:09.940Z,40
2018-11-06T06:58:09.163Z,40
2018-11-06T06:59:09.664Z,45
2018-11-06T07:00:09.649Z,45
2018-11-06T07:01:09.381Z,45
2018-11-06T07:02:09.632Z,45
2018-11-06T07:03:09.884Z,45
2018-11-06T07:04:09.350Z,45
2018-11-06T07:05:09.078Z,45
2018-11-06T07:06:08.807Z,45
2018-11-06T07:07:09.305Z,50
2018-11-06T07:08:09.610Z,50
2018-11-06T07:09:09.797Z,50
2018-11-06T07:10:09.281Z,50
2018-11-06T07:11:09.516Z,50
2018-11-06T07:12:09.502Z,50
2018-11-06T07:13:09.840Z,50
2018-11-06T07:14:08.969Z,50
2018-11-06T07:15:08.952Z,55
2018-11-06T07:16:09.459Z,55
2018-11-06T07:17:09.186Z,55
2018-11-06T07:18:09.181Z,55
2018-11-06T07:19:09.442Z,55
2018-11-06T07:20:09.684Z,55
2018-11-06T07:21:09.145Z,55
2018-11-06T07:22:09.642Z,55
2018-11-06T07:23:09.116Z,60
2018-11-06T07:24:08.865Z,60
2018-11-06T07:25:09.350Z,60
2018-11-06T07:26:09.077Z,60
2018-11-06T07:27:09.586Z,60
2018-11-06T07:28:09.314Z,60
2018-11-06T07:29:09.060Z,60
2018-11-06T07:30:09.053Z,60
2018-11-06T07:31:09.285Z,60
2018-11-06T07:32:09.275Z,65
2018-11-06T07:33:08.745Z,65
2018-11-06T07:34:09.253Z,65
2018-11-06T07:35:09.241Z,65
2018-11-06T07:36:08.706Z,65
2018-11-06T07:37:08.958Z,65
2018-11-06T07:38:08.938Z,65
2018-11-06T07:39:08.950Z,65
2018-11-06T07:40:09.183Z,65
2018-11-06T07:41:09.885Z,65
2018-11-06T07:42:08.914Z,70
2018-11-06T07:43:08.887Z,70
2018-11-06T07:44:09.124Z,70
2018-11-06T07:45:08.868Z,70
2018-11-06T07:46:09.106Z,70
2018-11-06T07:47:09.096Z,70
2018-11-06T07:48:09.083Z,70
2018-11-06T07:49:09.069Z,70
2018-11-06T07:50:08.745Z,70
2018-11-06T07:51:09.052Z,70
2018-11-06T07:52:09.052Z,70
2018-11-06T07:53:08.772Z,75
2018-11-06T07:54:08.497Z,75
2018-11-06T07:55:08.750Z,75
2018-11-06T07:56:09.312Z,75
2018-11-06T07:57:08.979Z,75
2018-11-06T07:58:08.452Z,75
2018-11-06T07:59:08.185Z,75
2018-11-06T08:00:08.948Z,75
2018-11-06T08:01:08.933Z,75
2018-11-06T08:02:08.922Z,75
2018-11-06T08:03:08.657Z,75
2018-11-06T08:04:09.065Z,75
2018-11-06T08:05:08.889Z,75
2018-11-06T08:06:09.019Z,75
2018-11-06T08:07:08.864Z,75
2018-11-06T08:08:08.595Z,75
2018-11-06T08:09:09.107Z,75
2018-11-06T08:10:08.318Z,75
2018-11-06T08:11:08.824Z,75
2018-11-06T08:12:08.556Z,75
2018-11-06T08:13:09.052Z,75
2018-11-06T08:14:08.275Z,75
2018-11-06T08:15:08.532Z,75
2018-11-06T08:16:08.781Z,75
2018-11-06T08:17:08.498Z,75
2018-11-06T08:18:08.668Z,75
2018-11-06T08:19:08.477Z,75
2018-11-06T08:20:08.724Z,75
2018-11-06T08:21:08.988Z,75
2018-11-06T08:22:08.700Z,75
2018-11-06T08:23:08.180Z,75
2018-11-06T08:24:09.177Z,75
2018-11-06T08:25:07.897Z,75
2018-11-06T08:26:08.656Z,75
2018-11-06T08:27:08.387Z,75
2018-11-06T08:28:08.124Z,75
2018-11-06T08:29:08.622Z,75
2018-11-06T08:30:08.368Z,75
2018-11-06T08:31:11.375Z,75
2018-11-06T08:32:11.949Z,75
2018-11-06T08:33:08.669Z,75
2018-11-06T08:34:08.822Z,75
2018-11-06T08:35:08.732Z,75
2018-11-06T08:36:08.550Z,75
2018-11-06T08:37:08.617Z,80
2018-11-06T08:38:08.521Z,80
2018-11-06T08:39:08.773Z,80
2018-11-06T08:40:08.501Z,80
2018-11-06T08:41:08.750Z,80
2018-11-06T08:42:08.489Z,80
2018-11-06T08:43:08.479Z,80
2018-11-06T08:44:08.212Z,80
2018-11-06T08:45:08.724Z,80
2018-11-06T08:46:08.063Z,80
2018-11-06T08:47:08.432Z,80
2018-11-06T08:48:09.149Z,80
2018-11-06T08:49:08.153Z,80
2018-11-06T08:50:08.141Z,80
2018-11-06T08:51:08.387Z,80
2018-11-06T08:52:08.380Z,80
2018-11-06T08:53:08.126Z,80
2018-11-06T08:54:08.356Z,80
2018-11-06T08:55:08.091Z,80
2018-11-06T08:56:08.089Z,80
2018-11-06T08:57:08.074Z,80
2018-11-06T08:58:08.056Z,80
2018-11-06T08:59:08.050Z,80
2018-11-06T09:00:07.779Z,80
2018-11-06T09:01:08.287Z,80
2018-11-06T09:02:08.528Z,80
2018-11-06T09:03:08.008Z,80
2018-11-06T09:04:08.256Z,80
2018-11-06T09:05:07.737Z,80
2018-11-06T09:06:08.240Z,80
2018-11-06T09:07:08.248Z,80
2018-11-06T09:08:08.478Z,80
2018-11-06T09:09:08.473Z,80
2018-11-06T09:10:07.939Z,80
2018-11-06T09:11:07.933Z,80
2018-11-06T09:12:07.937Z,80
2018-11-06T09:13:08.170Z,80
2018-11-06T09:14:07.649Z,80
2018-11-06T09:15:07.894Z,80
2018-11-06T09:16:07.878Z,85
2018-11-06T09:17:08.585Z,85
2018-11-06T09:18:07.603Z,85
2018-11-06T09:19:07.591Z,85
2018-11-06T09:20:07.847Z,85
2018-11-06T09:21:07.839Z,85
2018-11-06T09:22:07.568Z,85
2018-11-06T09:23:07.821Z,85
2018-11-06T09:24:08.060Z,85
2018-11-06T09:25:08.055Z,85
2018-11-06T09:26:07.784Z,85
2018-11-06T09:27:08.028Z,85
2018-11-06T09:28:08.284Z,80
2018-11-06T09:29:08.333Z,85
2018-11-06T09:30:07.489Z,85
2018-11-06T09:31:08.257Z,85
2018-11-06T09:32:07.730Z,85
2018-11-06T09:33:07.716Z,85
2018-11-06T09:34:07.983Z,85
2018-11-06T09:35:07.855Z,85
2018-11-06T09:36:07.701Z,85
2018-11-06T09:56:06.654Z,85
2018-11-06T09:56:16.039Z,85
2018-11-06T09:57:16.548Z,90
2018-11-06T09:58:16.529Z,90
2018-11-06T09:59:16.517Z,90
2018-11-06T10:00:16.617Z,90
2018-11-06T10:01:16.245Z,90
2018-11-06T10:02:16.506Z,90
2018-11-06T10:03:16.231Z,90
2018-11-06T10:04:16.477Z,90
2018-11-06T10:05:16.215Z,90
2018-11-06T10:06:16.842Z,90
2018-11-06T10:07:18.224Z,90
2018-11-06T10:08:15.925Z,90
2018-11-06T10:09:16.668Z,90
2018-11-06T10:10:15.661Z,90
2018-11-06T10:11:16.163Z,90
2018-11-06T10:12:16.154Z,90
2018-11-06T10:13:16.410Z,90
2018-11-06T10:14:16.393Z,90
2018-11-06T10:15:16.128Z,90
2018-11-06T10:16:16.128Z,90
2018-11-06T10:17:16.362Z,90
2018-11-06T10:18:16.363Z,90
2018-11-06T10:19:15.840Z,90
2018-11-06T10:20:16.345Z,90
2018-11-06T10:21:16.377Z,90
2018-11-06T10:22:16.344Z,85
2018-11-06T10:23:16.065Z,85
2018-11-06T10:24:16.327Z,85
2018-11-06T10:25:16.307Z,85
2018-11-06T10:26:16.041Z,90
2018-11-06T10:27:16.287Z,85
2018-11-06T10:28:16.028Z,90
2018-11-06T10:29:15.770Z,90
2018-11-06T10:30:16.008Z,90
2018-11-06T10:31:16.011Z,90
2018-11-06T10:32:15.997Z,90
2018-11-06T10:33:15.984Z,90
2018-11-06T10:34:15.728Z,90
2018-11-06T10:35:15.974Z,90
2018-11-06T10:36:16.227Z,90
2018-11-06T10:37:16.218Z,90
2018-11-06T10:38:16.429Z,90
2018-11-06T10:39:15.697Z,90
2018-11-06T10:40:16.199Z,95
2018-11-06T10:41:16.188Z,95
2018-11-06T10:42:15.678Z,95
2018-11-06T10:43:16.172Z,95
2018-11-06T10:44:15.653Z,95
2018-11-06T10:45:16.167Z,95
2018-11-06T10:46:15.889Z,95
2018-11-06T10:47:15.888Z,100
2018-11-06T10:48:15.884Z,100
2018-11-06T10:49:15.888Z,100
2018-11-06T10:50:15.870Z,100
2018-11-06T10:51:15.608Z,100
2018-11-06T10:52:16.118Z,100
2018-11-06T10:53:15.863Z,100
2018-11-06T10:54:15.835Z,100
2018-11-06T10:55:16.136Z,100
2018-11-06T10:56:15.568Z,100
2018-11-06T10:57:15.821Z,100
2018-11-06T10:58:16.669Z,100
2018-11-06T10:59:15.552Z,100
2018-11-06T11:00:15.805Z,95
2018-11-06T11:01:15.541Z,95
2018-11-06T11:02:16.053Z,95
2018-11-06T11:03:15.786Z,95
2018-11-06T11:04:15.410Z,95
2018-11-06T11:05:15.769Z,95
2018-11-06T11:06:16.024Z,95
2018-11-06T11:07:16.045Z,95
2018-11-06T11:08:16.006Z,95
2018-11-06T11:09:15.750Z,95
2018-11-06T11:10:15.737Z,95
2018-11-06T11:11:15.994Z,95
2018-11-06T11:12:15.727Z,95
2018-11-06T11:13:16.154Z,90
2018-11-06T11:14:15.719Z,90
2018-11-06T11:15:15.192Z,90
2018-11-06T11:16:15.961Z,90
2018-11-06T11:17:15.433Z,90
2018-11-06T11:18:15.684Z,90
2018-11-06T11:19:15.681Z,90
2018-11-06T11:20:16.433Z,90
2018-11-06T11:21:15.676Z,90
2018-11-06T11:22:15.404Z,90
2018-11-06T11:23:15.403Z,90
2018-11-06T11:24:15.650Z,90
2018-11-06T11:25:15.385Z,90
2018-11-06T11:26:14.865Z,90
2018-11-06T11:27:15.119Z,90
2018-11-06T11:28:15.646Z,90
2018-11-06T11:29:15.358Z,90
2018-11-06T11:30:15.868Z,90
2018-11-06T11:31:15.357Z,90
2018-11-06T11:32:15.601Z,90
2018-11-06T11:33:15.631Z,90
2018-11-06T11:34:15.609Z,90
2018-11-06T11:35:15.868Z,85
2018-11-06T11:36:15.321Z,85
2018-11-06T11:37:15.854Z,85
2018-11-06T11:38:15.845Z,85
2018-11-06T11:39:15.564Z,85
2018-11-06T11:40:15.552Z,85
2018-11-06T11:41:15.549Z,85
2018-11-06T11:42:15.539Z,85
2018-11-06T11:43:15.536Z,85
2018-11-06T11:44:15.534Z,85
2018-11-06T11:45:15.790Z,85
2018-11-06T11:46:15.793Z,85
2018-11-06T11:47:15.515Z,85
2018-11-06T11:48:15.758Z,85
2018-11-06T11:49:15.502Z,85
2018-11-06T11:50:15.241Z,85
2018-11-06T11:51:15.489Z,85
2018-11-06T11:52:15.496Z,85
2018-11-06T11:53:15.482Z,85
2018-11-06T11:54:15.476Z,85
2018-11-06T11:55:15.469Z,85
2018-11-06T11:56:15.199Z,85
2018-11-06T11:57:15.191Z,85
2018-11-06T11:58:15.447Z,85
2018-11-06T11:59:15.719Z,85
2018-11-06T12:00:16.080Z,85
2018-11-06T12:01:15.701Z,85
2018-11-06T12:02:15.805Z,85
2018-11-06T12:03:15.415Z,85
2018-11-06T12:04:15.167Z,85
2018-11-06T12:05:15.412Z,80
2018-11-06T12:06:15.402Z,80
2018-11-06T12:07:15.396Z,80
2018-11-06T12:08:15.657Z,80
2018-11-06T12:09:15.405Z,80
2018-11-06T12:10:14.867Z,80
2018-11-06T12:11:15.378Z,80
2018-11-06T12:12:15.622Z,80
2018-11-06T12:13:15.111Z,80
2018-11-06T12:14:15.360Z,80
2018-11-06T12:15:15.613Z,80
2018-11-06T12:16:15.341Z,80
2018-11-06T12:17:15.733Z,80
2018-11-06T12:18:15.180Z,80
2018-11-06T12:19:15.332Z,80
2018-11-06T12:20:15.332Z,80
2018-11-06T12:21:15.323Z,80
2018-11-06T12:22:15.052Z,80
2018-11-06T12:23:15.305Z,85
2018-11-06T12:24:15.678Z,85
2018-11-06T12:25:17.567Z,80
2018-11-06T12:26:15.561Z,85
2018-11-06T12:27:15.592Z,85
2018-11-06T12:28:15.021Z,85
2018-11-06T12:29:15.013Z,85
2018-11-06T12:30:15.532Z,85
2018-11-06T12:31:15.001Z,85
2018-11-06T12:32:14.997Z,85
2018-11-06T12:33:15.511Z,85
2018-11-06T12:34:15.243Z,85
2018-11-06T12:35:14.993Z,85
2018-11-06T12:36:15.263Z,85
2018-11-06T12:37:15.417Z,85
2018-11-06T12:38:14.960Z,85
2018-11-06T12:39:15.217Z,80
2018-11-06T12:40:15.456Z,80
2018-11-06T12:41:15.460Z,80
2018-11-06T12:42:14.943Z,80
2018-11-06T12:43:16.405Z,80
2018-11-06T12:44:15.465Z,80
2018-11-06T12:45:15.177Z,80
2018-11-06T12:46:15.431Z,80
2018-11-06T12:47:15.439Z,80
2018-11-06T12:48:15.424Z,80
2018-11-06T12:49:15.163Z,80
2018-11-06T12:50:15.509Z,80
2018-11-06T12:51:15.157Z,80
2018-11-06T12:52:15.193Z,80
2018-11-06T12:53:15.409Z,75
2018-11-06T12:54:15.384Z,80
2018-11-06T12:55:15.386Z,80
2018-11-06T12:56:15.752Z,80
2018-11-06T12:57:14.858Z,80
2018-11-06T12:58:15.365Z,80
2018-11-06T12:59:15.105Z,80
2018-11-06T13:00:14.840Z,80
2018-11-06T13:01:15.347Z,75
2018-11-06T13:02:14.826Z,75
2018-11-06T13:03:15.566Z,75
2018-11-06T13:04:15.336Z,75
2018-11-06T13:05:15.063Z,75
2018-11-06T13:06:15.316Z,75
2018-11-06T13:07:15.309Z,75
2018-11-06T13:08:15.320Z,75
2018-11-06T13:09:15.298Z,75
2018-11-06T13:10:15.205Z,75
2018-11-06T13:11:15.282Z,75
2018-11-06T13:12:14.767Z,75
2018-11-06T13:13:15.284Z,75
2018-11-06T13:14:15.265Z,75
2018-11-06T13:15:15.715Z,75
2018-11-06T13:16:15.880Z,75
2018-11-06T13:17:15.582Z,75
2018-11-06T13:18:15.000Z,70
2018-11-06T13:19:15.071Z,70
2018-11-06T13:20:15.237Z,70
2018-11-06T13:21:14.967Z,70
2018-11-06T13:22:14.959Z,70
2018-11-06T13:23:15.219Z,65
2018-11-06T13:24:14.952Z,70
2018-11-06T13:25:14.960Z,70
2018-11-06T13:26:16.178Z,70
2018-11-06T13:27:14.940Z,70
2018-11-06T13:28:14.937Z,70
2018-11-06T13:29:14.666Z,70
2018-11-06T13:30:15.188Z,70
2018-11-06T13:31:14.913Z,70
2018-11-06T13:32:15.054Z,65
2018-11-06T13:33:14.644Z,65
2018-11-06T13:34:14.914Z,65
2018-11-06T13:35:14.885Z,70
2018-11-06T13:36:15.146Z,70
2018-11-06T13:37:14.608Z,70
2018-11-06T13:38:14.867Z,70
2018-11-06T13:39:15.119Z,70
2018-11-06T13:40:15.101Z,70
2018-11-06T13:41:15.104Z,70
2018-11-06T13:42:15.215Z,70
2018-11-06T13:43:15.769Z,70
2018-11-06T13:44:17.100Z,70
2018-11-06T13:45:16.684Z,65
2018-11-06T13:46:15.086Z,65
2018-11-06T13:47:15.081Z,65
2018-11-06T13:48:14.807Z,65
2018-11-06T13:49:15.052Z,70
2018-11-06T13:50:14.791Z,70
2018-11-06T13:51:14.266Z,70
2018-11-06T13:52:15.164Z,70
2018-11-06T13:53:15.038Z,70
2018-11-06T13:54:14.503Z,70
2018-11-06T13:55:15.018Z,65
2018-11-06T13:56:15.012Z,65
2018-11-06T13:57:14.749Z,65
2018-11-06T13:58:14.730Z,65
2018-11-06T13:59:14.998Z,65
2018-11-06T14:00:14.468Z,65
2018-11-06T14:01:14.727Z,65
2018-11-06T14:02:14.968Z,65
2018-11-06T14:03:14.962Z,65
2018-11-06T14:04:15.201Z,65
2018-11-06T14:05:14.952Z,65
2018-11-06T14:06:14.689Z,65
2018-11-06T14:07:14.424Z,65
2018-11-06T14:08:14.938Z,65
2018-11-06T14:09:14.663Z,60
2018-11-06T14:10:14.664Z,60
2018-11-06T14:11:14.653Z,65
2018-11-06T14:12:14.895Z,65
2018-11-06T14:13:14.373Z,65
2018-11-06T14:14:14.369Z,60
2018-11-06T14:15:14.621Z,60
2018-11-06T14:16:14.613Z,60
2018-11-06T14:17:14.866Z,55
2018-11-06T14:18:14.595Z,55
2018-11-06T14:19:14.846Z,55
2018-11-06T14:20:14.592Z,50
2018-11-06T14:21:14.990Z,50
2018-11-06T14:22:14.575Z,50
2018-11-06T14:23:14.572Z,50
2018-11-06T14:24:14.820Z,50
2018-11-06T14:25:14.309Z,50
2018-11-06T14:26:14.557Z,50
2018-11-06T14:27:14.851Z,50
2018-11-06T14:28:14.532Z,50
2018-11-06T14:29:14.784Z,50
2018-11-06T14:30:14.002Z,50
2018-11-06T14:31:14.256Z,50
2018-11-06T14:32:14.776Z,50
2018-11-06T14:33:14.757Z,45
2018-11-06T14:34:14.749Z,45
2018-11-06T14:35:14.740Z,45
2018-11-06T14:36:14.477Z,45
2018-11-06T14:37:14.728Z,45
2018-11-06T14:38:14.453Z,45
2018-11-06T14:39:14.453Z,45
2018-11-06T14:40:14.450Z,40
2018-11-06T14:41:14.687Z,40
2018-11-06T14:42:14.990Z,40
2018-11-06T14:43:14.167Z,40
2018-11-06T14:44:14.674Z,35
2018-11-06T14:45:14.664Z,35
2018-11-06T14:46:14.393Z,35